Latest Weather Observations for Parawa West

IDS60901

Issued at 8:31 am CST Sunday 24 July 2016 (issued every 10 minutes, with the page automatically refreshed every 10 minutes)

About weather observations | Map of Adelaide area stations | Latest observations for Adelaide area | Other Formats
Station Details ID: 023875 Name: SECOND VALLEY FOREST AWS Lat: -35.57 Lon: 138.29 Height: 341.0 m
Data from the previous 72 hours. | See also: Recent months at Parawa West
Date/Time
CST
Temp
°C
App
Temp
°C
Dew
Point
°C
Rel
Hum
%
Delta-T
°C
Wind Press
QNH
hPa
Press
MSL
hPa
Rain since
9am
mm
Dir  Spd
km/h
Gust
km/h
Spd
kts
Gust
kts
24/08:30am 7.9 1.6 7.3 96 0.3 NNW 30 52 16 28 1004.3 1004.6 4.8
24/08:05am 7.8 1.9 7.7 99 0.0 NNW 28 50 15 27 1004.5 1004.8 4.8
24/08:00am 7.8 2.3 7.7 99 0.0 NW 26 50 14 27 1004.6 1004.9 4.8
24/07:30am 7.8 3.5 7.8 100 0.0 NNW 20 41 11 22 1004.8 1005.1 4.8
24/07:00am 7.8 2.0 7.8 100 0.0 NNW 28 48 15 26 1005.2 1005.4 4.6
24/06:58am 7.8 2.0 7.8 100 0.0 NNW 28 48 15 26 1005.2 1005.4 4.6
24/06:30am 7.5 3.1 7.4 99 0.0 NNW 20 37 11 20 1005.3 1005.5 3.4
24/06:00am 7.4 3.1 7.1 98 0.1 NNW 19 41 10 22 1005.8 1006.0 2.8
24/05:30am 7.4 2.1 6.8 96 0.3 NNW 24 50 13 27 1006.4 1006.7 2.6
24/05:00am 8.1 4.1 6.7 91 0.7 NW 17 30 9 16 1006.6 1006.9 1.6
24/04:30am 8.0 3.7 6.9 93 0.5 NW 19 43 10 23 1006.9 1007.2 1.6
24/04:00am 8.0 3.6 7.2 95 0.4 NW 20 41 11 22 1007.4 1007.7 1.6
24/03:30am 7.8 3.8 6.6 92 0.6 NNW 17 32 9 17 1008.2 1008.4 1.6
24/03:00am 7.8 3.7 6.4 91 0.7 NW 17 32 9 17 1008.7 1008.9 1.6
24/02:30am 7.5 4.1 6.1 91 0.6 NW 13 22 7 12 1009.4 1009.7 1.6
24/02:00am 7.3 4.4 6.4 94 0.4 NW 11 19 6 10 1010.0 1010.3 1.6
24/01:30am 7.6 3.9 6.5 93 0.5 NNW 15 22 8 12 1010.5 1010.8 1.6
24/01:00am 7.2 3.4 5.8 91 0.6 NNW 15 24 8 13 1011.3 1011.6 1.6
24/12:30am 7.5 3.9 6.6 94 0.4 NNW 15 26 8 14 1011.7 1012.0 1.6
24/12:00am 7.2 3.1 6.0 92 0.6 NNW 17 26 9 14 1012.2 1012.5 1.6
 
Date/Time
CST
Temp
°C
App
Temp
°C
Dew
Point
°C
Rel
Hum
%
Delta-T
°C
Wind Press
QNH
hPa
Press
MSL
hPa
Rain since
9am
mm
Dir  Spd
km/h
Gust
km/h
Spd
kts
Gust
kts
23/11:30pm 6.7 3.3 6.1 96 0.3 NNW 13 19 7 10 1012.5 1012.8 1.6
23/11:00pm 6.1 3.0 5.5 96 0.3 NNW 11 17 6 9 1012.8 1013.1 1.6
23/10:30pm 5.8 3.4 5.4 97 0.2 N 7 11 4 6 1013.2 1013.5 1.6
23/10:00pm 5.9 3.6 5.5 97 0.2 WNW 7 11 4 6 1013.2 1013.5 1.6
23/09:30pm 6.2 3.5 5.6 96 0.3 NNW 9 19 5 10 1013.6 1013.9 1.0
23/09:00pm 6.0 4.2 5.3 95 0.3 NNW 4 6 2 3 1013.5 1013.8 0.8
23/08:30pm 5.9 4.4 4.9 93 0.4 NNW 2 6 1 3 1013.8 1014.2 0.6
23/08:00pm 5.7 3.7 4.2 90 0.7 NNW 4 6 2 3 1013.8 1014.2 0.6
23/07:30pm 6.1 4.1 4.3 88 0.8 NNW 4 6 2 3 1013.9 1014.3 0.6
23/07:00pm 6.0 3.6 4.5 90 0.7 NW 6 7 3 4 1014.0 1014.4 0.6
23/06:30pm 5.9 3.8 4.1 88 0.8 NW 4 7 2 4 1013.7 1014.1 0.6
23/06:00pm 6.3 3.9 4.1 86 1.0 NW 6 6 3 3 1013.6 1013.9 0.6
23/05:30pm 6.4 3.7 3.9 84 1.1 WNW 7 9 4 5 1013.6 1013.9 0.6
23/05:00pm 7.7 4.3 3.9 77 1.7 WNW 11 17 6 9 1013.4 1013.7 0.6
23/04:30pm 8.2 4.9 4.6 78 1.6 W 11 15 6 8 1013.5 1013.8 0.6
23/04:00pm 8.1 4.1 4.7 79 1.5 W 15 20 8 11 1013.5 1013.8 0.6
23/03:30pm 8.3 3.4 4.9 79 1.5 W 20 32 11 17 1013.5 1013.8 0.6
23/03:00pm 8.0 4.6 3.8 75 1.8 WNW 11 20 6 11 1013.5 1013.8 0.6
23/02:30pm 7.5 2.6 4.3 80 1.4 W 19 24 10 13 1013.4 1013.7 0.6
23/02:00pm 8.7 4.2 4.3 74 2.0 W 17 26 9 14 1013.3 1013.6 0.6
23/01:30pm 9.5 4.9 3.9 68 2.5 W 17 26 9 14 1013.2 1013.5 0.6
23/01:00pm 8.8 3.8 3.4 69 2.4 W 19 28 10 15 1013.3 1013.6 0.6
23/12:30pm 7.2 4.7 4.7 84 1.1 SW 7 11 4 6 1013.6 1013.9 0.6
23/12:00pm 9.4 4.4 3.6 67 2.6 W 19 26 10 14 1013.6 1013.9 0.0
23/11:30am 8.7 4.9 3.7 71 2.2 WSW 13 20 7 11 1014.0 1014.4 0.0
23/11:00am 9.3 4.2 3.3 66 2.6 W 19 26 10 14 1013.8 1014.2 0.0
23/10:30am 9.0 4.7 3.0 66 2.6 WSW 15 24 8 13 1013.7 1014.1 0.0
23/10:00am 8.6 4.6 2.8 67 2.5 SW 13 24 7 13 1013.5 1013.8 0.0
23/09:30am 8.3 4.8 3.6 72 2.1 SW 11 20 6 11 1013.2 1013.5 0.0
23/09:00am 7.8 4.4 3.8 76 1.8 SW 11 17 6 9 1012.8 1013.1 5.6
23/08:30am 7.3 4.3 3.9 79 1.5 SW 9 15 5 8 1012.5 1012.8 5.6
23/08:00am 6.5 3.0 3.7 82 1.2 SW 11 17 6 9 1011.9 1012.2 5.6
23/07:30am 6.5 3.4 3.8 83 1.2 SW 9 15 5 8 1011.4 1011.7 5.6
23/07:00am 6.6 2.8 4.1 84 1.1 SW 13 20 7 11 1010.9 1011.2 5.6
23/06:30am 6.6 2.9 4.4 86 1.0 SW 13 20 7 11 1010.3 1010.6 5.6
23/06:00am 6.4 2.8 5.2 92 0.5 SW 13 24 7 13 1010.0 1010.3 5.6
23/05:30am 6.5 3.1 5.9 96 0.3 WSW 13 20 7 11 1009.7 1010.0 5.6
23/05:00am 6.5 1.9 5.5 93 0.5 WSW 19 28 10 15 1009.1 1009.4 5.6
23/04:30am 6.2 2.6 5.0 92 0.5 WSW 13 17 7 9 1008.7 1008.9 5.2
23/04:00am 6.8 3.1 6.2 96 0.3 WSW 15 20 8 11 1008.5 1008.7 5.2
23/03:30am 6.8 3.5 6.2 96 0.3 WSW 13 22 7 12 1008.3 1008.5 5.2
23/03:00am 7.0 3.7 6.6 97 0.2 W 13 20 7 11 1008.1 1008.3 4.6
23/02:30am 7.0 3.7 6.3 95 0.3 W 13 22 7 12 1007.8 1008.1 4.6
23/02:00am 6.9 3.5 5.8 93 0.5 W 13 20 7 11 1007.3 1007.6 4.4
23/01:30am 7.3 3.5 5.9 91 0.6 W 15 20 8 11 1007.0 1007.3 4.4
23/01:00am 7.3 2.7 5.8 90 0.7 WSW 19 28 10 15 1006.4 1006.7 4.4
23/12:30am 7.4 1.9 5.9 90 0.7 W 24 39 13 21 1006.0 1006.2 4.4
23/12:00am 7.5 0.9 6.0 90 0.7 W 30 59 16 32 1005.3 1005.5 4.4
 
Date/Time
CST
Temp
°C
App
Temp
°C
Dew
Point
°C
Rel
Hum
%
Delta-T
°C
Wind Press
QNH
hPa
Press
MSL
hPa
Rain since
9am
mm
Dir  Spd
km/h
Gust
km/h
Spd
kts
Gust
kts
22/11:30pm 7.6 -0.5 5.2 85 1.1 W 37 59 20 32 1004.4 1004.7 4.4
22/11:00pm 7.9 0.1 5.0 82 1.3 W 35 56 19 30 1003.4 1003.6 4.4
22/10:30pm 7.6 0.1 4.6 81 1.3 W 33 56 18 30 1003.0 1003.2 4.4
22/10:03pm 7.3 -0.7 3.9 79 1.5 W 35 54 19 29 1002.5 1002.7 4.4
22/10:00pm 7.3 -0.7 3.9 79 1.5 W 35 52 19 28 1002.5 1002.7 4.4
22/09:30pm 8.6 0.0 4.8 77 1.7 W 39 72 21 39 1001.9 1002.1 4.4
22/09:00pm 8.0 0.4 5.8 86 1.0 W 35 56 19 30 1001.7 1002.0 4.4
22/08:30pm 8.3 0.4 4.3 76 1.8 WNW 35 57 19 31 1001.2 1001.4 4.4
22/08:00pm 8.0 -1.4 4.4 78 1.6 WNW 43 89 23 48 1000.8 1001.0 4.4
22/07:57pm 8.7 0.1 4.9 77 1.7 WNW 39 89 21 48 1000.3 1000.5 4.0
22/07:30pm 7.1 -0.7 4.9 86 1.0 WNW 35 57 19 31 1000.6 1000.8 4.0
22/07:00pm 7.9 0.0 4.3 78 1.6 W 35 56 19 30 1000.3 1000.5 4.0
22/06:30pm 8.0 0.7 5.5 84 1.2 WNW 33 54 18 29 999.8 1000.0 4.0
22/06:00pm 7.3 -2.2 5.0 85 1.0 W 44 76 24 41 999.7 999.9 4.0
22/05:58pm 7.4 -2.2 4.5 82 1.3 W 44 76 24 41 999.6 999.8 3.8
22/05:30pm 9.4 2.4 6.7 83 1.3 WNW 33 52 18 28 998.6 998.8 3.6
22/05:02pm 8.9 3.1 7.8 93 0.5 WNW 28 69 15 37 998.2 998.4 3.6
22/05:00pm 8.8 3.4 8.0 95 0.4 WNW 26 39 14 21 998.4 998.6 3.6
22/04:30pm 7.9 -0.3 6.4 90 0.7 WNW 39 65 21 35 998.1 998.3 3.6
22/04:00pm 9.7 3.2 8.0 89 0.8 NW 32 52 17 28 997.9 998.1 2.4
22/03:30pm 9.0 2.2 7.5 90 0.7 WNW 33 56 18 30 998.0 998.2 2.4
22/03:00pm 8.2 1.2 7.0 92 0.6 NW 33 57 18 31 998.1 998.3 2.2
22/02:30pm 11.6 5.6 10.2 91 0.7 NW 32 52 17 28 997.6 997.8 0.0
22/02:00pm 11.4 5.8 10.0 91 0.7 NW 30 50 16 27 997.6 997.8 0.0
22/01:40pm 11.9 5.7 9.3 84 1.3 NW 32 50 17 27 997.8 998.0 0.0
22/01:30pm 12.1 6.4 9.8 86 1.2 NW 30 46 16 25 998.0 998.2 0.0
22/01:05pm 11.3 5.4 9.2 87 1.1 NW 30 48 16 26 998.6 998.8 0.0
22/01:00pm 11.4 6.1 10.0 91 0.7 NW 28 44 15 24 998.5 998.7 0.0
22/12:43pm 11.3 5.9 9.6 89 0.9 NW 28 46 15 25 999.0 999.2 0.0
22/12:30pm 11.2 5.5 9.8 91 0.7 NW 30 46 16 25 999.0 999.2 0.0
22/12:00pm 11.5 5.1 10.7 95 0.4 NW 35 57 19 31 999.4 999.6 0.0
22/11:44am 11.3 5.8 10.4 94 0.5 NW 30 50 16 27 999.4 999.6 0.0
22/11:30am 11.6 6.6 11.1 97 0.3 NW 28 44 15 24 999.9 1000.1 0.0
22/11:07am 11.6 5.2 10.7 94 0.5 NNW 35 54 19 29 1000.0 1000.2 0.0
22/11:00am 11.6 6.2 10.8 95 0.4 NNW 30 43 16 23 1000.0 1000.2 0.0
22/10:33am 11.6 5.8 10.8 95 0.4 NNW 32 54 17 29 1000.5 1000.7 0.0
22/10:30am 11.6 5.9 11.0 96 0.3 NNW 32 46 17 25 1000.6 1000.8 0.0
22/10:10am 11.2 6.1 10.7 97 0.3 NW 28 50 15 27 1000.9 1001.1 0.0
22/10:00am 11.3 6.3 11.0 98 0.2 NNW 28 46 15 25 1001.1 1001.3 0.0
22/09:48am 11.4 6.4 11.1 98 0.2 NNW 28 48 15 26 1001.2 1001.4 0.0
22/09:30am 11.4 6.4 10.9 97 0.3 NW 28 44 15 24 1001.3 1001.5 0.0
22/09:00am 11.4 7.1 10.9 97 0.3 NW 24 43 13 23 1001.5 1001.8 1.0
22/08:30am 11.4 6.7 10.8 96 0.3 NW 26 41 14 22 1001.7 1002.0 1.0
22/08:00am 11.3 7.0 10.7 96 0.3 NW 24 37 13 20 1001.4 1001.7 1.0
22/07:30am 11.4 7.0 10.5 94 0.5 NW 24 39 13 21 1001.5 1001.8 1.0
22/07:00am 11.5 6.7 10.2 92 0.7 NW 26 43 14 23 1001.2 1001.4 1.0
22/06:30am 11.3 7.7 10.7 96 0.3 NW 20 33 11 18 1001.3 1001.5 1.0
22/06:00am 11.4 7.2 11.2 99 0.1 NW 24 37 13 20 1001.0 1001.2 1.0
22/05:31am 11.6 6.8 11.6 100 0.0 NW 28 54 15 29 1001.0 1001.2 1.0
22/05:30am 11.6 7.2 11.6 100 0.0 NW 26 54 14 29 1001.0 1001.2 1.0
22/05:00am 11.8 7.0 11.8 100 0.0 NW 28 43 15 23 1001.1 1001.3 1.0
22/04:30am 12.0 7.3 12.0 100 0.0 NW 28 46 15 25 1001.1 1001.3 1.0
22/04:01am 12.1 7.4 12.1 100 0.0 NW 28 48 15 26 1001.5 1001.8 1.0
22/04:00am 12.1 7.8 12.1 100 0.0 NW 26 48 14 26 1001.5 1001.8 1.0
22/03:43am 12.1 7.4 12.1 100 0.0 NW 28 46 15 25 1001.4 1001.7 1.0
22/03:30am 12.2 7.9 12.0 99 0.1 NW 26 39 14 21 1001.5 1001.8 0.6
22/03:00am 12.3 7.6 12.1 99 0.1 NW 28 43 15 23 1001.6 1001.9 0.6
22/02:30am 12.3 8.8 12.1 99 0.1 NW 22 35 12 19 1002.0 1002.2 0.6
22/02:00am 12.3 9.7 12.1 99 0.1 NW 17 26 9 14 1002.4 1002.6 0.6
22/01:30am 12.5 9.4 12.3 99 0.1 NW 20 30 11 16 1002.5 1002.7 0.6
22/01:00am 12.8 10.0 12.6 99 0.1 NW 19 30 10 16 1003.0 1003.2 0.6
22/12:30am 13.0 10.3 12.8 99 0.1 NW 19 30 10 16 1003.5 1003.7 0.6
22/12:00am 13.2 10.5 12.9 98 0.2 WNW 19 32 10 17 1004.0 1004.3 0.6
 
Date/Time
CST
Temp
°C
App
Temp
°C
Dew
Point
°C
Rel
Hum
%
Delta-T
°C
Wind Press
QNH
hPa
Press
MSL
hPa
Rain since
9am
mm
Dir  Spd
km/h
Gust
km/h
Spd
kts
Gust
kts
21/11:30pm 13.3 10.0 12.7 96 0.3 WNW 22 33 12 18 1003.9 1004.2 0.4
21/11:00pm 14.1 10.6 12.1 88 1.1 WNW 22 32 12 17 1004.1 1004.4 0.0
21/10:30pm 14.5 12.1 12.5 88 1.1 NW 17 26 9 14 1003.9 1004.2 0.0
21/10:00pm 14.4 11.9 13.6 95 0.5 NNW 19 30 10 16 1004.4 1004.7 0.0
21/09:30pm 15.3 12.2 13.5 89 1.0 NW 22 44 12 24 1003.6 1003.8 0.0
21/09:00pm 16.4 15.2 14.1 86 1.3 NW 13 35 7 19 1003.3 1003.5 0.0
21/08:30pm 16.6 15.5 14.2 86 1.4 NNW 13 33 7 18 1003.8 1004.0 0.0
21/08:00pm 17.0 15.2 14.5 85 1.5 NNW 17 28 9 15 1004.2 1004.5 0.0
21/07:30pm 17.0 16.0 14.6 86 1.4 NW 13 28 7 15 1004.0 1004.3 0.0
21/07:00pm 17.0 16.4 14.6 86 1.4 NW 11 28 6 15 1004.3 1004.6 0.0
21/06:30pm 16.7 16.0 14.2 85 1.5 NW 11 32 6 17 1004.4 1004.7 0.0
21/06:00pm 16.6 15.8 14.1 85 1.5 NW 11 35 6 19 1005.1 1005.3 0.0
21/05:30pm 16.4 16.2 13.7 84 1.6 WNW 7 22 4 12 1005.2 1005.4 0.0
21/05:00pm 16.3 15.7 13.6 84 1.5 WNW 9 22 5 12 1005.7 1005.9 0.0
21/04:30pm 16.2 15.2 13.5 84 1.5 NW 11 30 6 16 1006.1 1006.3 0.0
21/04:00pm 17.0 16.5 13.7 81 1.9 NW 9 19 5 10 1006.5 1006.8 0.0
21/03:30pm 18.3 18.3 14.2 77 2.4 NW 7 15 4 8 1007.1 1007.4 0.0
21/03:00pm 18.3 18.0 14.4 78 2.3 W 9 19 5 10 1007.7 1008.0 0.0
21/02:30pm 17.4 17.2 13.7 79 2.1 NW 7 15 4 8 1008.4 1008.6 0.0
21/02:00pm 17.4 16.8 13.5 78 2.2 NNW 9 20 5 11 1008.5 1008.7 0.0
21/01:30pm 15.7 15.5 13.0 84 1.5 W 6 15 3 8 1009.2 1009.5 0.0
21/01:00pm 15.1 14.7 12.4 84 1.5 WNW 6 13 3 7 1009.7 1010.0 0.0
21/12:30pm 15.3 15.0 12.6 84 1.5 W 6 13 3 7 1010.4 1010.7 0.0
21/12:00pm 15.4 14.4 12.2 81 1.8 NW 9 17 5 9 1011.2 1011.4 0.0
21/11:30am 14.9 13.9 12.4 85 1.4 NW 9 19 5 10 1011.5 1011.8 0.0
21/11:00am 14.6 13.5 11.9 84 1.5 NW 9 20 5 11 1012.3 1012.6 0.0
21/10:30am 14.5 13.6 12.5 88 1.1 NW 9 19 5 10 1012.7 1013.0 0.0
21/10:00am 14.4 13.8 12.4 88 1.1 NW 7 20 4 11 1013.0 1013.3 0.0
21/09:30am 14.5 13.8 13.2 92 0.7 NW 9 17 5 9 1013.0 1013.3 0.0
21/09:00am 13.4 13.2 12.9 97 0.3 WNW 6 17 3 9 1013.1 1013.4 0.2

Latest Capital City Observations: Canberra | Sydney | Melbourne | Brisbane | Adelaide | Perth | Hobart | Darwin

Other Formats:

Comma delimited format used in spreadsheet applications
http://www.bom.gov.au/fwo/IDS60901/IDS60901.94811.axf

JavaScript Object Notation format (JSON) in row-major order
http://www.bom.gov.au/fwo/IDS60901/IDS60901.94811.json